Time;durP1;ratioP1;P1;durP2;ratioP2;P2;SDS_P1;SDS_P2;PMS_P1;PMS_P2;Temp;Humidity;BMP_temperature;BMP_pressure;BME280_temperature;BME280_humidity;BME280_pressure;Samples;Min_cycle;Max_cycle;Signal;HPM_P1;HPM_P2
2022/01/21 00:00:37;;;;;;;23.00;3.67;;;1.40;99.90;;;;;;4931382;28;20375;-73
2022/01/21 00:03:03;;;;;;;19.95;3.53;;;1.40;99.90;;;;;;4937005;28;20036;-74
2022/01/21 00:05:29;;;;;;;18.13;3.40;;;1.40;99.90;;;;;;4932044;28;20043;-73
2022/01/21 00:07:54;;;;;;;21.55;3.47;;;1.40;99.90;;;;;;4934123;28;20062;-73
2022/01/21 00:10:20;;;;;;;31.25;3.67;;;1.40;99.90;;;;;;4932645;28;20530;-73
2022/01/21 00:12:47;;;;;;;19.05;3.10;;;1.40;99.90;;;;;;4929875;29;20402;-72
2022/01/21 00:15:16;;;;;;;29.52;3.63;;;1.40;99.90;;;;;;4932485;28;20054;-73
2022/01/21 00:17:41;;;;;;;24.75;3.67;;;1.40;99.90;;;;;;4934624;29;20506;-73
2022/01/21 00:31:15;;;;;;;24.30;3.25;;;1.70;99.90;;;;;;4852482;28;20057;-72
2022/01/21 00:33:41;;;;;;;25.98;3.45;;;1.70;99.90;;;;;;4947966;28;20095;-74
2022/01/21 00:36:08;;;;;;;20.42;4.00;;;1.70;99.90;;;;;;4945507;28;20048;-73
2022/01/21 00:38:33;;;;;;;22.02;3.75;;;1.70;99.90;;;;;;4930646;28;20070;-73
2022/01/21 00:41:03;;;;;;;16.58;3.55;;;1.80;99.90;;;;;;4933785;28;20157;-73
2022/01/21 00:43:31;;;;;;;27.20;2.90;;;1.80;99.90;;;;;;4947056;28;20039;-74
2022/01/21 00:45:58;;;;;;;21.50;2.90;;;1.90;99.90;;;;;;4928234;29;20478;-74
2022/01/21 00:48:24;;;;;;;26.17;2.67;;;1.90;99.90;;;;;;4932444;28;20039;-74
2022/01/21 00:50:50;;;;;;;20.30;3.95;;;1.90;99.90;;;;;;4938080;28;20090;-73
2022/01/21 00:53:16;;;;;;;17.17;2.90;;;2.00;99.90;;;;;;4935378;29;20035;-73
2022/01/21 00:55:42;;;;;;;27.33;2.75;;;2.00;99.90;;;;;;4932304;28;20118;-73
2022/01/21 00:58:07;;;;;;;20.52;2.80;;;2.00;99.90;;;;;;4930897;29;20051;-73
2022/01/21 01:00:34;;;;;;;18.92;2.53;;;2.00;99.90;;;;;;4949049;28;20066;-74
2022/01/21 01:03:00;;;;;;;17.17;2.53;;;2.00;99.90;;;;;;4931695;28;20438;-73
2022/01/21 01:05:26;;;;;;;18.27;2.78;;;1.90;99.90;;;;;;4918492;28;20077;-72
2022/01/21 01:07:54;;;;;;;13.25;2.60;;;1.90;99.90;;;;;;4932961;28;20118;-73
2022/01/21 01:10:38;;;;;;;21.58;3.15;;;1.80;99.90;;;;;;4944630;28;20481;-74
2022/01/21 01:21:21;;;;;;;18.92;2.42;;;1.80;99.90;;;;;;4934438;28;20126;-74
2022/01/21 01:27:35;;;;;;;15.57;2.00;;;1.80;99.90;;;;;;4930656;28;20163;-73
2022/01/21 01:29:32;;;;;;;11.35;2.10;;;1.90;99.90;;;;;;4946406;28;20478;-72
2022/01/21 01:31:58;;;;;;;12.63;1.80;;;2.00;99.90;;;;;;4931521;28;20065;-73
2022/01/21 01:34:23;;;;;;;16.20;2.42;;;1.90;99.90;;;;;;4929512;28;20031;-72
2022/01/21 01:36:49;;;;;;;17.20;2.60;;;2.00;99.90;;;;;;4932503;28;20070;-72
2022/01/21 01:39:28;;;;;;;19.70;2.25;;;2.00;99.90;;;;;;4929448;28;20047;-73
2022/01/21 01:42:11;;;;;;;20.45;2.20;;;2.00;99.90;;;;;;4931631;28;20039;-73
2022/01/21 01:50:06;;;;;;;14.02;2.22;;;2.10;99.90;;;;;;4945604;28;20059;-73
2022/01/21 01:52:33;;;;;;;12.50;2.10;;;2.20;99.90;;;;;;4928824;28;20043;-73
2022/01/21 01:54:59;;;;;;;18.48;2.40;;;2.10;99.90;;;;;;4930778;28;20042;-73
2022/01/21 01:57:24;;;;;;;13.85;2.00;;;2.10;99.90;;;;;;4916845;28;20057;-73
2022/01/21 01:59:50;;;;;;;15.43;2.10;;;2.20;99.90;;;;;;4930211;28;20047;-74
2022/01/21 02:02:18;;;;;;;9.13;1.77;;;2.10;99.90;;;;;;4931513;28;20047;-72
2022/01/21 02:04:45;;;;;;;19.63;2.55;;;2.20;99.90;;;;;;4927667;28;20130;-72
2022/01/21 02:07:12;;;;;;;12.05;2.00;;;2.20;99.90;;;;;;4926776;28;20100;-73
2022/01/21 02:09:37;;;;;;;13.88;2.30;;;2.20;99.90;;;;;;4929783;28;20039;-73
2022/01/21 02:12:04;;;;;;;14.88;1.90;;;2.30;99.90;;;;;;4928654;28;20045;-73
2022/01/21 02:14:34;;;;;;;15.35;1.75;;;2.20;99.90;;;;;;4948314;28;20098;-73
2022/01/21 02:22:17;;;;;;;12.48;2.05;;;2.30;99.90;;;;;;4934032;28;20039;-73
2022/01/21 02:24:54;;;;;;;16.33;1.98;;;2.30;99.90;;;;;;4929192;28;20044;-73
2022/01/21 02:27:20;;;;;;;17.00;2.72;;;2.30;99.90;;;;;;4933129;28;20067;-73
2022/01/21 02:29:52;;;;;;;11.90;1.83;;;2.30;99.90;;;;;;4931164;28;20039;-73
2022/01/21 02:32:19;;;;;;;15.25;2.50;;;2.20;99.90;;;;;;4931409;28;20039;-73
2022/01/21 02:34:46;;;;;;;10.98;1.75;;;2.20;99.90;;;;;;4945664;28;20062;-72
2022/01/21 02:37:15;;;;;;;11.98;1.70;;;2.20;99.90;;;;;;4930561;28;20126;-73
2022/01/21 02:39:40;;;;;;;11.45;1.60;;;2.10;99.90;;;;;;4912235;28;20043;-73
2022/01/21 02:42:07;;;;;;;13.80;1.85;;;2.00;99.90;;;;;;4946461;28;20046;-73
2022/01/21 02:44:32;;;;;;;12.27;1.83;;;2.00;99.90;;;;;;4928388;28;20039;-73
2022/01/21 02:47:01;;;;;;;17.67;1.85;;;1.90;99.90;;;;;;4930884;28;20463;-73
2022/01/21 02:49:27;;;;;;;19.13;2.00;;;1.90;99.90;;;;;;4929433;28;20047;-72
2022/01/21 02:51:54;;;;;;;17.25;1.95;;;2.00;99.90;;;;;;4928004;28;20047;-73
2022/01/21 02:54:20;;;;;;;14.85;1.98;;;2.00;99.90;;;;;;4931305;28;20055;-72
2022/01/21 02:56:45;;;;;;;12.80;2.30;;;2.00;99.90;;;;;;4930643;28;20043;-73
2022/01/21 02:59:12;;;;;;;10.80;2.25;;;2.10;99.90;;;;;;4930229;28;20054;-73
2022/01/21 03:01:40;;;;;;;13.73;2.22;;;2.10;99.90;;;;;;4945298;28;20047;-72
2022/01/21 03:04:08;;;;;;;18.63;1.92;;;2.30;99.90;;;;;;4931375;28;20509;-72
2022/01/21 03:06:38;;;;;;;13.38;1.63;;;2.30;99.90;;;;;;4928956;28;20054;-72
2022/01/21 03:09:06;;;;;;;12.60;1.90;;;2.30;99.90;;;;;;4926432;28;20043;-72
2022/01/21 03:11:31;;;;;;;12.45;2.33;;;2.30;99.90;;;;;;4928226;28;20031;-73
2022/01/21 03:13:57;;;;;;;12.95;1.50;;;2.30;99.90;;;;;;4926734;28;20042;-73
2022/01/21 03:16:24;;;;;;;15.10;2.20;;;2.20;99.90;;;;;;4925454;28;20094;-73
2022/01/21 03:18:51;;;;;;;14.02;2.10;;;2.20;99.90;;;;;;4928126;28;20039;-72
2022/01/21 03:21:17;;;;;;;19.95;2.30;;;2.10;99.90;;;;;;4941835;28;20042;-73
2022/01/21 03:23:46;;;;;;;13.52;1.77;;;2.20;99.90;;;;;;4944542;28;20465;-72
2022/01/21 03:26:14;;;;;;;13.40;1.92;;;2.10;99.90;;;;;;4926819;28;20475;-73
2022/01/21 03:28:40;;;;;;;8.93;1.90;;;2.10;99.90;;;;;;4929495;28;20517;-72
2022/01/21 03:31:06;;;;;;;18.77;2.70;;;2.10;99.90;;;;;;4946343;28;20054;-73
2022/01/21 03:33:32;;;;;;;11.70;1.70;;;2.10;99.90;;;;;;4931503;28;20074;-73
2022/01/21 03:35:58;;;;;;;11.93;1.77;;;2.10;99.90;;;;;;4929475;28;20545;-72
2022/01/21 03:38:26;;;;;;;14.43;2.10;;;2.10;99.90;;;;;;4930502;28;20141;-73
2022/01/21 03:40:55;;;;;;;11.25;1.67;;;2.00;99.90;;;;;;4945825;28;20569;-73
2022/01/21 03:43:22;;;;;;;17.65;2.17;;;2.10;99.90;;;;;;4946785;28;20097;-72
2022/01/21 03:45:48;;;;;;;12.13;2.25;;;2.10;99.90;;;;;;4928328;28;20422;-73
2022/01/21 03:48:15;;;;;;;9.07;1.67;;;2.00;99.90;;;;;;4931001;28;20126;-73
2022/01/21 03:50:42;;;;;;;12.07;1.73;;;2.00;99.90;;;;;;4946178;28;20620;-73
2022/01/21 03:53:08;;;;;;;10.73;1.58;;;2.00;99.90;;;;;;4915951;28;20506;-73
2022/01/21 03:55:34;;;;;;;17.48;2.15;;;1.90;99.90;;;;;;4925853;28;20039;-72
2022/01/21 03:58:01;;;;;;;15.18;1.83;;;1.90;99.90;;;;;;4927241;28;20964;-72
2022/01/21 04:00:38;;;;;;;11.80;1.90;;;1.90;99.90;;;;;;4927816;28;20044;-71
2022/01/21 04:03:04;;;;;;;18.73;2.00;;;1.80;99.90;;;;;;4928823;28;20043;-73
2022/01/21 04:05:31;;;;;;;15.68;1.83;;;1.80;99.90;;;;;;4929815;28;20059;-73
2022/01/21 04:07:57;;;;;;;13.48;1.90;;;1.70;99.90;;;;;;4930424;28;20450;-73
2022/01/21 04:10:23;;;;;;;16.48;1.83;;;1.60;99.90;;;;;;4927375;28;20039;-73
2022/01/21 04:12:50;;;;;;;17.80;2.10;;;1.60;99.90;;;;;;4927412;28;20403;-73
2022/01/21 04:15:16;;;;;;;16.80;2.08;;;1.50;99.90;;;;;;4930472;28;20466;-72
2022/01/21 04:17:42;;;;;;;16.33;2.03;;;1.50;99.90;;;;;;4929291;28;20442;-72
2022/01/21 04:20:09;;;;;;;13.48;1.73;;;1.50;99.90;;;;;;4928561;28;20397;-71
2022/01/21 04:22:35;;;;;;;14.27;1.95;;;1.40;99.90;;;;;;4928482;28;20047;-73
2022/01/21 04:25:01;;;;;;;17.10;2.28;;;1.40;99.90;;;;;;4929996;28;20414;-72
2022/01/21 04:27:27;;;;;;;17.85;2.13;;;1.40;99.90;;;;;;4930030;28;20043;-73
2022/01/21 04:29:53;;;;;;;16.85;2.60;;;1.40;99.90;;;;;;4927803;28;20043;-73
2022/01/21 04:32:19;;;;;;;15.73;2.13;;;1.30;99.90;;;;;;4928998;28;20036;-73
2022/01/21 04:34:44;;;;;;;17.65;2.25;;;1.40;99.90;;;;;;4929389;28;20050;-72
2022/01/21 04:37:12;;;;;;;18.55;2.45;;;1.30;99.90;;;;;;4928559;28;20054;-72
2022/01/21 04:39:52;;;;;;;20.40;2.30;;;1.40;99.90;;;;;;4925793;28;20062;-73
2022/01/21 04:47:29;;;;;;;16.02;2.20;;;1.30;99.90;;;;;;4930985;28;20031;-73
2022/01/21 04:49:55;;;;;;;21.65;2.65;;;1.30;99.90;;;;;;4932007;28;20110;-73
2022/01/21 04:52:22;;;;;;;16.23;2.35;;;1.40;99.90;;;;;;4932195;28;20529;-72
2022/01/21 04:54:49;;;;;;;19.27;2.45;;;1.40;99.90;;;;;;4931810;28;20397;-73
2022/01/21 04:57:15;;;;;;;20.73;2.83;;;1.40;99.90;;;;;;4930461;28;20051;-71
2022/01/21 04:59:41;;;;;;;15.60;2.78;;;1.30;99.90;;;;;;4930134;28;20130;-71
2022/01/21 05:02:07;;;;;;;24.70;2.60;;;1.30;99.90;;;;;;4932378;28;20040;-72
2022/01/21 05:04:33;;;;;;;11.63;2.00;;;1.30;99.90;;;;;;4936015;28;20078;-73
2022/01/21 05:07:02;;;;;;;16.48;2.67;;;1.30;99.90;;;;;;4948587;28;20038;-72
2022/01/21 05:09:33;;;;;;;14.73;2.33;;;1.30;99.90;;;;;;4931203;28;20066;-73
2022/01/21 05:12:01;;;;;;;12.30;3.38;;;1.30;99.90;;;;;;4930604;28;20500;-72
2022/01/21 05:14:44;;;;;;;20.20;3.35;;;1.20;99.90;;;;;;4932777;28;20490;-73
2022/01/21 05:17:12;;;;;;;18.25;2.42;;;1.20;99.90;;;;;;4930401;28;20054;-73
2022/01/21 05:19:37;;;;;;;13.20;2.15;;;1.20;99.90;;;;;;4916951;28;20035;-72
2022/01/21 05:22:04;;;;;;;7.22;1.60;;;1.30;99.90;;;;;;4932482;28;20090;-72
2022/01/21 05:24:30;;;;;;;18.98;2.08;;;1.30;99.90;;;;;;4932514;28;20035;-73
2022/01/21 05:26:58;;;;;;;15.15;2.50;;;1.40;99.90;;;;;;4929997;28;20045;-72
2022/01/21 05:29:29;;;;;;;11.75;1.80;;;1.40;99.90;;;;;;4933517;28;20123;-73
2022/01/21 05:31:55;;;;;;;13.68;3.00;;;1.40;99.90;;;;;;4944983;28;20050;-73
2022/01/21 05:34:22;;;;;;;18.17;2.53;;;1.40;99.90;;;;;;4929868;28;20039;-73
2022/01/21 05:36:47;;;;;;;17.25;2.55;;;1.40;99.90;;;;;;4930551;28;20063;-71
2022/01/21 05:39:16;;;;;;;16.20;2.35;;;1.30;99.90;;;;;;4932860;28;20078;-73
2022/01/21 05:41:48;;;;;;;12.80;2.17;;;1.40;99.90;;;;;;4933803;28;20142;-71
2022/01/21 05:46:22;;;;;;;13.23;2.22;;;1.40;99.90;;;;;;4932887;28;20712;-73
2022/01/21 05:47:04;;;;;;;21.08;2.40;;;1.30;99.90;;;;;;4941081;28;20043;-72
2022/01/21 05:49:32;;;;;;;17.23;2.28;;;1.30;99.90;;;;;;4948270;28;20047;-72
2022/01/21 05:52:06;;;;;;;14.10;2.00;;;1.30;99.90;;;;;;4932434;28;20098;-73
2022/01/21 05:54:32;;;;;;;10.80;1.73;;;1.20;99.90;;;;;;4933135;28;20051;-71
2022/01/21 05:57:01;;;;;;;20.02;2.55;;;1.20;99.90;;;;;;4947022;28;20458;-71
2022/01/21 05:59:27;;;;;;;18.75;2.17;;;1.10;99.90;;;;;;4929582;28;20047;-72
2022/01/21 06:01:53;;;;;;;14.60;2.10;;;1.10;99.90;;;;;;4948557;28;20049;-71
2022/01/21 06:04:18;;;;;;;18.60;2.25;;;1.20;99.90;;;;;;4929760;28;20035;-72
2022/01/21 06:06:44;;;;;;;19.88;2.45;;;1.20;99.90;;;;;;4929488;29;20043;-73
2022/01/21 06:09:10;;;;;;;20.75;2.60;;;1.40;99.90;;;;;;4929990;28;20043;-74
2022/01/21 06:11:36;;;;;;;13.00;2.30;;;1.40;99.90;;;;;;4927884;28;20047;-72
2022/01/21 06:14:03;;;;;;;17.85;2.30;;;1.40;99.90;;;;;;4926909;28;20130;-73
2022/01/21 06:16:29;;;;;;;19.48;2.47;;;1.40;99.90;;;;;;4928665;28;20581;-72
2022/01/21 06:18:55;;;;;;;11.27;2.22;;;1.40;99.90;;;;;;4927343;28;20134;-72
2022/01/21 06:21:21;;;;;;;25.13;2.78;;;1.50;99.90;;;;;;4931630;28;20039;-72
2022/01/21 06:23:47;;;;;;;21.60;2.45;;;1.50;99.90;;;;;;4926730;28;20046;-71
2022/01/21 06:26:13;;;;;;;19.73;2.53;;;1.50;99.90;;;;;;4937622;29;20047;-72
2022/01/21 06:28:39;;;;;;;17.73;2.15;;;1.50;99.90;;;;;;4928129;28;20126;-73
2022/01/21 06:31:05;;;;;;;19.50;2.08;;;1.50;99.90;;;;;;4932245;29;20099;-73
2022/01/21 06:33:31;;;;;;;21.77;2.17;;;1.50;99.90;;;;;;4934412;29;20043;-72
2022/01/21 06:35:57;;;;;;;18.67;1.90;;;1.60;99.90;;;;;;4946005;28;20039;-72
2022/01/21 06:38:23;;;;;;;14.32;2.20;;;1.60;99.90;;;;;;4931528;28;20042;-72
2022/01/21 06:40:50;;;;;;;21.42;2.33;;;1.60;99.90;;;;;;4930806;29;20106;-73
2022/01/21 06:43:16;;;;;;;14.50;1.88;;;1.60;99.90;;;;;;4930510;28;20457;-72
2022/01/21 06:45:42;;;;;;;18.10;2.25;;;1.70;99.90;;;;;;4931367;28;20071;-72
2022/01/21 06:48:09;;;;;;;11.02;2.10;;;1.70;99.90;;;;;;4930941;29;20462;-72
2022/01/21 06:50:37;;;;;;;18.98;2.33;;;1.70;99.90;;;;;;4952729;28;20051;-73
2022/01/21 06:53:03;;;;;;;10.40;1.70;;;1.70;99.90;;;;;;4933872;28;20101;-73
2022/01/21 06:55:29;;;;;;;13.25;2.88;;;1.70;99.90;;;;;;4947810;28;20043;-74
2022/01/21 06:57:58;;;;;;;16.30;2.25;;;1.80;99.90;;;;;;4900964;28;20045;-73
2022/01/21 07:00:24;;;;;;;28.10;2.80;;;1.80;99.90;;;;;;4930164;28;20129;-73
2022/01/21 07:02:51;;;;;;;12.75;1.83;;;1.80;99.90;;;;;;4944100;28;20094;-72
2022/01/21 07:05:18;;;;;;;16.25;2.30;;;1.80;99.90;;;;;;4932447;28;20043;-73
2022/01/21 07:07:44;;;;;;;14.18;2.05;;;1.90;99.90;;;;;;4929185;28;20039;-74
2022/01/21 07:10:11;;;;;;;12.93;2.05;;;1.80;99.90;;;;;;4925036;28;20569;-73
2022/01/21 07:12:38;;;;;;;14.30;2.00;;;1.90;99.90;;;;;;4942016;28;20091;-73
2022/01/21 07:15:09;;;;;;;16.02;1.83;;;1.80;99.90;;;;;;4928409;28;20058;-73
2022/01/21 07:17:35;;;;;;;14.60;1.83;;;1.80;99.90;;;;;;4944134;28;20050;-73
2022/01/21 07:20:01;;;;;;;14.00;2.28;;;1.80;99.90;;;;;;4928956;28;20514;-72
2022/01/21 07:22:27;;;;;;;14.63;2.42;;;1.80;99.90;;;;;;4944641;28;20173;-73
2022/01/21 07:24:53;;;;;;;19.63;2.28;;;1.80;99.90;;;;;;4943186;28;20138;-73
2022/01/21 07:27:18;;;;;;;19.98;2.10;;;1.70;99.90;;;;;;4942062;28;20036;-73
2022/01/21 07:29:44;;;;;;;12.27;1.60;;;1.70;99.90;;;;;;4944897;28;20185;-73
2022/01/21 07:32:10;;;;;;;20.05;3.22;;;1.70;99.90;;;;;;4929006;28;20114;-72
2022/01/21 07:34:36;;;;;;;19.77;2.45;;;1.70;99.90;;;;;;4945324;28;20082;-72
2022/01/21 07:37:02;;;;;;;15.75;2.40;;;1.70;99.90;;;;;;4929227;28;20047;-73
2022/01/21 07:39:28;;;;;;;15.90;1.92;;;1.60;99.90;;;;;;4928899;29;20035;-72
2022/01/21 07:41:54;;;;;;;19.38;5.35;;;1.60;99.90;;;;;;4935372;29;20195;-72
2022/01/21 07:44:19;;;;;;;15.75;5.97;;;1.60;99.90;;;;;;4936127;29;20047;-72
2022/01/21 07:46:46;;;;;;;15.75;2.88;;;1.50;99.90;;;;;;4929165;28;20421;-73
2022/01/21 07:49:12;;;;;;;20.80;3.95;;;1.60;99.90;;;;;;4932060;29;20102;-73
2022/01/21 07:51:38;;;;;;;17.23;2.20;;;1.60;99.90;;;;;;4933356;28;20036;-73
2022/01/21 07:54:04;;;;;;;17.05;2.72;;;1.60;99.90;;;;;;4932348;29;20035;-73
2022/01/21 07:56:33;;;;;;;20.55;5.63;;;1.50;99.90;;;;;;4934514;28;20115;-73
2022/01/21 07:59:01;;;;;;;12.93;2.08;;;1.60;99.90;;;;;;4927981;29;20050;-73
2022/01/21 08:01:27;;;;;;;32.67;15.40;;;1.50;99.90;;;;;;4934089;28;20050;-72
2022/01/21 08:03:52;;;;;;;17.98;2.55;;;1.50;99.90;;;;;;4961922;28;20490;-72
2022/01/21 08:06:19;;;;;;;14.75;2.30;;;1.50;99.90;;;;;;4937770;29;20158;-73
2022/01/21 08:08:44;;;;;;;15.13;2.53;;;1.60;99.90;;;;;;4940308;29;20067;-73
2022/01/21 08:11:10;;;;;;;19.20;2.47;;;1.60;99.90;;;;;;4919889;29;20121;-73
2022/01/21 08:13:36;;;;;;;16.13;3.85;;;1.60;99.90;;;;;;4947397;28;20490;-73
2022/01/21 08:16:01;;;;;;;18.00;2.33;;;1.70;99.90;;;;;;4934434;28;20065;-73
2022/01/21 08:18:27;;;;;;;21.38;2.83;;;1.70;99.90;;;;;;4940258;29;20039;-74
2022/01/21 08:20:53;;;;;;;16.05;2.58;;;1.70;99.90;;;;;;4915237;28;20044;-72
2022/01/21 08:23:19;;;;;;;17.00;3.15;;;1.70;99.90;;;;;;4952250;28;20046;-76
2022/01/21 08:25:45;;;;;;;12.85;2.88;;;1.70;99.90;;;;;;4936936;28;20405;-71
2022/01/21 08:28:11;;;;;;;15.23;2.83;;;1.70;99.90;;;;;;4929846;28;20086;-72
2022/01/21 08:30:38;;;;;;;16.65;2.67;;;1.70;99.90;;;;;;4932782;28;20469;-72
2022/01/21 08:33:03;;;;;;;18.52;2.30;;;1.70;99.90;;;;;;4934012;29;20493;-71
2022/01/21 08:35:30;;;;;;;13.13;2.50;;;1.70;99.90;;;;;;4953021;28;20044;-72
2022/01/21 08:37:56;;;;;;;17.35;2.30;;;1.70;99.90;;;;;;4932917;28;20047;-71
2022/01/21 08:40:23;;;;;;;17.38;2.50;;;1.70;99.90;;;;;;4917206;28;20047;-71
2022/01/21 08:42:49;;;;;;;17.65;2.58;;;1.70;99.90;;;;;;4930680;28;20043;-71
2022/01/21 08:45:15;;;;;;;16.27;2.72;;;1.70;99.90;;;;;;4933623;28;21629;-71
2022/01/21 08:47:42;;;;;;;16.13;2.28;;;1.80;99.90;;;;;;4946629;28;20074;-72
2022/01/21 08:50:11;;;;;;;15.15;2.40;;;1.80;99.90;;;;;;4929954;28;20070;-72
2022/01/21 08:52:38;;;;;;;19.73;2.63;;;1.80;99.90;;;;;;4930790;28;20204;-71
2022/01/21 08:55:12;;;;;;;16.55;2.53;;;1.90;99.90;;;;;;4934573;28;20048;-71
2022/01/21 08:57:41;;;;;;;20.67;2.53;;;2.00;99.90;;;;;;4932611;29;20051;-71
2022/01/21 09:00:11;;;;;;;22.88;3.03;;;2.00;99.90;;;;;;4940869;28;20062;-71
2022/01/21 09:02:36;;;;;;;20.60;3.70;;;2.00;99.90;;;;;;4939817;28;20062;-72
2022/01/21 09:05:03;;;;;;;18.73;3.42;;;2.10;99.90;;;;;;4946738;28;20043;-72
2022/01/21 09:07:29;;;;;;;20.25;4.32;;;2.10;99.90;;;;;;4935790;29;20062;-71
2022/01/21 09:09:54;;;;;;;19.30;7.30;;;2.20;99.90;;;;;;4939961;29;20047;-71
2022/01/21 09:12:20;;;;;;;18.10;4.65;;;2.20;99.90;;;;;;4953361;28;20046;-72
2022/01/21 09:14:46;;;;;;;28.70;9.48;;;2.20;99.90;;;;;;4925618;29;20050;-72
2022/01/21 09:17:12;;;;;;;36.47;14.75;;;2.20;99.90;;;;;;4944522;29;20050;-72
2022/01/21 09:19:38;;;;;;;86.35;39.60;;;2.20;99.90;;;;;;4943147;29;20051;-72
2022/01/21 09:22:04;;;;;;;180.10;80.55;;;2.20;99.90;;;;;;4937579;28;20069;-72
2022/01/21 09:24:31;;;;;;;17.23;6.82;;;2.20;99.90;;;;;;4944546;29;20073;-73
2022/01/21 09:26:57;;;;;;;14.48;2.80;;;2.30;99.90;;;;;;4936524;29;20046;-72
2022/01/21 09:29:23;;;;;;;19.17;5.72;;;2.30;99.90;;;;;;4939815;29;20039;-71
2022/01/21 09:31:49;;;;;;;17.27;2.90;;;2.40;99.90;;;;;;4937298;28;20040;-71
2022/01/21 09:34:15;;;;;;;13.98;2.63;;;2.50;99.90;;;;;;4951106;29;20113;-72
2022/01/21 09:36:42;;;;;;;21.17;2.88;;;2.50;99.90;;;;;;4936685;28;20051;-71
2022/01/21 09:39:08;;;;;;;22.08;3.35;;;2.60;99.90;;;;;;4951548;28;20098;-71
2022/01/21 09:41:34;;;;;;;22.38;2.65;;;2.80;99.90;;;;;;4937857;29;20046;-72
2022/01/21 09:44:03;;;;;;;20.83;2.88;;;2.80;99.90;;;;;;4937748;28;20035;-71
2022/01/21 09:46:36;;;;;;;24.10;2.90;;;2.90;99.90;;;;;;4935686;28;20035;-71
2022/01/21 09:49:20;;;;;;;21.40;3.40;;;2.90;99.90;;;;;;4937429;29;20058;-71
2022/01/21 09:51:50;;;;;;;20.85;3.25;;;3.00;99.90;;;;;;4929999;28;20089;-72
2022/01/21 09:54:15;;;;;;;19.52;3.03;;;3.00;99.90;;;;;;4935661;29;20133;-72
2022/01/21 09:56:45;;;;;;;16.48;2.72;;;3.10;99.90;;;;;;4939871;29;20131;-72
2022/01/21 09:59:12;;;;;;;13.82;2.55;;;3.20;99.90;;;;;;4937059;28;20194;-71
2022/01/21 10:01:38;;;;;;;21.25;2.90;;;3.20;99.90;;;;;;4934591;29;20094;-72
2022/01/21 10:04:04;;;;;;;15.40;2.72;;;3.30;99.90;;;;;;4939360;29;20071;-73
2022/01/21 10:06:32;;;;;;;19.20;3.20;;;3.30;99.90;;;;;;4937361;28;20062;-72
2022/01/21 10:09:01;;;;;;;21.55;3.10;;;3.40;99.90;;;;;;4951461;29;20165;-72
2022/01/21 10:11:27;;;;;;;14.30;2.30;;;3.50;99.90;;;;;;4930835;29;20047;-71
2022/01/21 10:13:53;;;;;;;22.13;2.92;;;3.50;99.90;;;;;;4937928;29;20044;-71
2022/01/21 10:16:18;;;;;;;17.45;2.90;;;3.60;99.90;;;;;;4954527;28;20090;-72
2022/01/21 10:19:05;;;;;;;13.80;2.50;;;3.70;99.90;;;;;;4951251;28;20051;-71
2022/01/21 10:21:37;;;;;;;17.70;2.67;;;3.90;99.90;;;;;;4935322;29;20047;-72
2022/01/21 10:24:07;;;;;;;15.15;3.22;;;4.00;99.90;;;;;;4933828;29;20130;-72
2022/01/21 10:26:33;;;;;;;15.75;2.45;;;4.10;99.90;;;;;;4939227;28;20040;-71
2022/01/21 10:28:59;;;;;;;13.35;2.50;;;4.20;99.90;;;;;;4944371;29;20050;-71
2022/01/21 10:31:27;;;;;;;17.80;2.50;;;4.30;99.90;;;;;;4943618;29;20092;-71
2022/01/21 10:33:56;;;;;;;16.27;2.22;;;4.30;99.90;;;;;;4937080;29;20102;-73
2022/01/21 10:36:33;;;;;;;12.73;2.40;;;4.40;99.90;;;;;;4940221;29;20051;-73
2022/01/21 10:39:11;;;;;;;17.15;2.05;;;4.50;99.90;;;;;;4952544;28;20031;-72
2022/01/21 10:41:41;;;;;;;21.45;3.75;;;4.50;99.90;;;;;;4937156;28;20409;-72
2022/01/21 10:44:13;;;;;;;16.33;2.25;;;4.60;99.90;;;;;;4948072;28;20039;-72
2022/01/21 10:46:46;;;;;;;22.88;3.33;;;4.70;99.90;;;;;;4940061;29;20054;-73
2022/01/21 10:49:14;;;;;;;27.27;6.60;;;4.60;99.90;;;;;;4950264;29;20055;-72
2022/01/21 10:51:51;;;;;;;32.05;14.77;;;4.70;99.90;;;;;;4940563;28;20047;-73
2022/01/21 10:54:26;;;;;;;31.80;8.20;;;4.70;99.90;;;;;;4950401;28;20050;-73
2022/01/21 10:57:05;;;;;;;43.90;13.98;;;4.70;99.90;;;;;;4936770;29;20043;-73
2022/01/21 11:00:07;;;;;;;31.00;8.45;;;4.80;99.90;;;;;;4933634;29;20078;-72
2022/01/21 11:02:49;;;;;;;27.65;4.97;;;5.00;99.90;;;;;;4905076;28;20051;-73
2022/01/21 11:05:21;;;;;;;49.22;16.98;;;5.20;99.90;;;;;;4946798;28;20046;-72
2022/01/21 11:08:05;;;;;;;27.48;6.60;;;5.30;99.90;;;;;;4944439;28;20134;-71
2022/01/21 11:10:40;;;;;;;22.50;3.85;;;5.20;99.90;;;;;;4939302;28;20494;-72
2022/01/21 11:13:25;;;;;;;53.28;24.17;;;5.20;99.90;;;;;;4925935;28;20039;-72
2022/01/21 11:16:13;;;;;;;23.80;3.80;;;5.10;99.90;;;;;;4928222;28;20042;-72
2022/01/21 11:19:11;;;;;;;24.13;4.53;;;5.10;99.90;;;;;;4943957;28;20043;-71
2022/01/21 11:21:56;;;;;;;22.85;3.90;;;5.10;99.90;;;;;;4913624;28;20043;-72
2022/01/21 11:24:25;;;;;;;28.35;4.00;;;5.20;99.90;;;;;;4930072;28;20042;-72
2022/01/21 11:27:07;;;;;;;30.58;6.18;;;5.30;99.90;;;;;;4930244;29;20043;-72
2022/01/21 11:29:34;;;;;;;17.98;2.90;;;5.40;99.90;;;;;;4940412;28;20126;-72
2022/01/21 11:32:00;;;;;;;21.27;3.85;;;5.40;99.90;;;;;;4927627;28;20054;-72
2022/01/21 11:34:26;;;;;;;27.65;3.67;;;5.40;99.90;;;;;;4931336;28;20086;-72
2022/01/21 11:36:53;;;;;;;29.42;3.75;;;5.40;99.90;;;;;;4927160;28;20047;-72
2022/01/21 11:39:23;;;;;;;23.60;3.88;;;5.40;99.90;;;;;;4928905;28;20050;-72
2022/01/21 11:41:52;;;;;;;21.60;3.92;;;5.50;99.90;;;;;;4928747;28;20039;-73
2022/01/21 11:44:23;;;;;;;22.20;3.58;;;5.50;99.90;;;;;;4930968;29;20043;-73
2022/01/21 11:49:58;;;;;;;21.48;3.55;;;5.60;99.90;;;;;;4937570;28;20233;-72
2022/01/21 11:52:24;;;;;;;25.25;3.67;;;5.70;99.90;;;;;;4931871;28;20039;-73
2022/01/21 11:54:50;;;;;;;21.95;3.28;;;5.70;99.90;;;;;;4925953;28;20490;-72
2022/01/21 11:57:26;;;;;;;27.48;3.60;;;5.80;99.90;;;;;;4940121;29;20082;-73
2022/01/21 12:00:01;;;;;;;25.15;3.53;;;5.80;99.90;;;;;;4909055;29;20047;-73
2022/01/21 12:02:30;;;;;;;25.40;3.90;;;5.90;99.90;;;;;;4955538;28;20130;-73
2022/01/21 12:05:10;;;;;;;17.95;2.72;;;6.10;99.90;;;;;;4933169;29;20457;-73
2022/01/21 12:07:49;;;;;;;19.33;2.63;;;6.20;99.90;;;;;;4922348;29;20040;-73
2022/01/21 12:10:23;;;;;;;13.13;2.70;;;6.20;99.90;;;;;;4928647;29;20046;-72
2022/01/21 12:12:55;;;;;;;14.90;2.55;;;6.30;99.90;;;;;;4938426;29;20050;-73
2022/01/21 12:15:31;;;;;;;15.10;3.57;;;6.40;99.90;;;;;;4934832;29;20039;-74
2022/01/21 12:18:05;;;;;;;22.45;4.85;;;6.50;99.90;;;;;;4955483;28;20055;-74
2022/01/21 12:20:32;;;;;;;62.85;28.00;;;6.50;99.90;;;;;;4937446;28;20406;-74
2022/01/21 12:23:12;;;;;;;68.88;31.83;;;6.50;99.90;;;;;;4934149;29;20043;-74
2022/01/21 12:26:16;;;;;;;85.40;39.50;;;6.60;99.90;;;;;;4935757;29;20078;-73
2022/01/21 12:28:47;;;;;;;45.35;19.13;;;6.60;99.90;;;;;;4938331;29;20051;-74
2022/01/21 12:31:16;;;;;;;101.55;54.33;;;6.70;99.90;;;;;;4937271;28;20039;-72
2022/01/21 12:34:04;;;;;;;67.00;35.67;;;6.70;99.90;;;;;;4949046;28;20039;-73
2022/01/21 12:36:34;;;;;;;139.68;89.57;;;6.70;99.90;;;;;;4918553;29;20051;-73
2022/01/21 12:41:35;;;;;;;16.98;7.70;;;6.70;99.90;;;;;;4937068;29;20073;-73
2022/01/21 12:44:05;;;;;;;18.02;8.68;;;6.80;99.90;;;;;;4950383;28;20118;-73
2022/01/21 12:46:40;;;;;;;12.75;2.60;;;6.80;99.90;;;;;;4920893;28;20075;-73
2022/01/21 12:49:46;;;;;;;16.70;4.43;;;6.90;99.90;;;;;;4941604;29;20047;-73
2022/01/21 12:52:24;;;;;;;13.70;6.68;;;6.90;99.90;;;;;;4940314;29;20051;-73
2022/01/21 12:57:34;;;;;;;12.13;5.72;;;6.90;99.90;;;;;;4940387;29;20055;-73
2022/01/21 13:00:08;;;;;;;17.10;2.88;;;6.90;99.90;;;;;;4939697;29;20043;-73
2022/01/21 13:02:34;;;;;;;19.48;5.80;;;6.90;99.90;;;;;;4939676;28;20502;-73
2022/01/21 13:05:15;;;;;;;12.93;3.35;;;6.80;99.90;;;;;;4939653;28;20052;-73
2022/01/21 13:08:17;;;;;;;14.23;3.42;;;6.90;99.90;;;;;;4937039;28;20130;-73
2022/01/21 13:10:43;;;;;;;18.02;4.63;;;6.90;99.90;;;;;;4939977;28;20142;-72
2022/01/21 13:15:55;;;;;;;17.35;3.05;;;6.90;99.90;;;;;;4936376;29;20122;-73
2022/01/21 13:18:28;;;;;;;17.63;2.53;;;6.80;99.90;;;;;;4950879;28;20046;-73
2022/01/21 13:20:57;;;;;;;13.45;2.53;;;6.80;99.90;;;;;;4951207;28;20069;-73
2022/01/21 13:23:57;;;;;;;14.05;2.10;;;6.80;99.90;;;;;;4936389;29;20043;-73
2022/01/21 13:26:37;;;;;;;18.70;2.85;;;6.80;99.90;;;;;;4939355;28;20533;-72
2022/01/21 13:29:10;;;;;;;85.82;54.67;;;6.80;99.90;;;;;;4932689;28;20083;-73
2022/01/21 13:31:51;;;;;;;23.67;6.15;;;6.80;99.90;;;;;;4936038;28;20087;-73
2022/01/21 13:34:19;;;;;;;87.40;38.65;;;6.80;99.90;;;;;;4938491;29;20051;-73
2022/01/21 13:36:50;;;;;;;91.85;42.10;;;6.80;99.90;;;;;;4943089;28;20478;-72
2022/01/21 13:39:17;;;;;;;119.55;50.17;;;6.80;99.90;;;;;;4935255;29;20660;-73
2022/01/21 13:41:50;;;;;;;104.03;42.05;;;6.90;99.90;;;;;;4938012;29;20055;-73
2022/01/21 13:44:42;;;;;;;196.63;78.88;;;6.90;99.90;;;;;;4953399;29;20051;-72